Time;durP1;ratioP1;P1;durP2;ratioP2;P2;SDS_P1;SDS_P2;PMS_P1;PMS_P2;Temp;Humidity;BMP_temperature;BMP_pressure;BME280_temperature;BME280_humidity;BME280_pressure;Samples;Min_cycle;Max_cycle;Signal;HPM_P1;HPM_P2
2022/04/04 00:00:56;;;;;;;6.77;6.17;;;;;;;;;;2083514;28;20180;-55
2022/04/04 00:01:57;;;;;;;5.63;5.20;;;;;;;;;;2088511;28;20492;-57
2022/04/04 00:02:57;;;;;;;5.87;5.30;;;;;;;;;;2086654;28;20178;-57
2022/04/04 00:03:57;;;;;;;9.43;6.07;;;;;;;;;;2092968;28;20612;-62
2022/04/04 00:04:57;;;;;;;6.27;5.87;;;;;;;;;;2089504;28;20183;-58
2022/04/04 00:05:58;;;;;;;6.10;5.57;;;;;;;;;;2089006;28;20175;-55
2022/04/04 00:06:59;;;;;;;6.00;5.50;;;;;;;;;;2080634;28;20204;-55
2022/04/04 00:08:00;;;;;;;6.50;5.57;;;;;;;;;;2083616;28;20171;-55
2022/04/04 00:09:00;;;;;;;5.60;5.10;;;;;;;;;;2093439;28;20163;-58
2022/04/04 00:10:01;;;;;;;6.83;5.10;;;;;;;;;;2093242;28;20464;-54
2022/04/04 00:11:01;;;;;;;6.57;5.97;;;;;;;;;;2086630;28;20193;-54
2022/04/04 00:12:02;;;;;;;5.70;5.27;;;;;;;;;;2090775;28;20190;-52
2022/04/04 00:13:02;;;;;;;6.17;5.27;;;;;;;;;;2090861;28;20190;-58
2022/04/04 00:14:03;;;;;;;7.03;6.23;;;;;;;;;;2081844;28;20334;-58
2022/04/04 00:15:04;;;;;;;6.20;5.60;;;;;;;;;;2085106;28;20266;-54
2022/04/04 00:16:07;;;;;;;5.70;5.27;;;;;;;;;;2085090;28;20172;-53
2022/04/04 00:17:09;;;;;;;6.47;5.20;;;;;;;;;;2086375;28;20190;-56
2022/04/04 00:18:11;;;;;;;5.63;5.00;;;;;;;;;;2084208;28;20218;-52
2022/04/04 00:19:11;;;;;;;7.27;6.57;;;;;;;;;;2073129;28;20647;-53
2022/04/04 00:20:12;;;;;;;6.23;5.63;;;;;;;;;;2074702;28;20192;-55
2022/04/04 00:21:12;;;;;;;6.47;5.97;;;;;;;;;;2075246;28;20717;-53
2022/04/04 00:22:12;;;;;;;6.80;6.17;;;;;;;;;;2081516;28;20184;-55
2022/04/04 00:23:13;;;;;;;5.63;5.23;;;;;;;;;;2087867;28;20638;-54
2022/04/04 00:24:13;;;;;;;6.03;5.40;;;;;;;;;;2094516;28;20706;-56
2022/04/04 00:25:14;;;;;;;6.37;5.87;;;;;;;;;;2087365;28;20183;-54
2022/04/04 00:26:15;;;;;;;6.37;5.77;;;;;;;;;;2091762;28;20194;-53
2022/04/04 00:27:15;;;;;;;6.50;6.00;;;;;;;;;;2081370;28;20230;-56
2022/04/04 00:28:15;;;;;;;6.80;6.30;;;;;;;;;;2081840;28;20168;-57
2022/04/04 00:29:15;;;;;;;6.50;5.83;;;;;;;;;;2080006;28;20551;-57
2022/04/04 00:30:16;;;;;;;6.27;5.77;;;;;;;;;;2076164;28;20165;-52
2022/04/04 00:31:17;;;;;;;6.47;5.87;;;;;;;;;;2081739;28;20295;-55
2022/04/04 00:32:18;;;;;;;6.30;5.70;;;;;;;;;;2080794;28;20652;-56
2022/04/04 00:33:18;;;;;;;6.90;6.37;;;;;;;;;;2082269;28;20219;-57
2022/04/04 00:34:18;;;;;;;6.53;5.53;;;;;;;;;;2095310;28;20179;-52
2022/04/04 00:35:18;;;;;;;5.70;5.30;;;;;;;;;;2082470;28;20186;-54
2022/04/04 00:36:19;;;;;;;6.97;6.33;;;;;;;;;;2084124;28;20176;-53
2022/04/04 00:37:19;;;;;;;6.97;5.87;;;;;;;;;;2092773;28;20184;-54
2022/04/04 00:38:19;;;;;;;6.60;6.00;;;;;;;;;;2082184;28;20172;-54
2022/04/04 00:39:19;;;;;;;6.17;5.67;;;;;;;;;;2077059;28;20192;-53
2022/04/04 00:40:20;;;;;;;6.63;6.00;;;;;;;;;;2078916;28;20165;-51
2022/04/04 00:41:20;;;;;;;5.40;4.93;;;;;;;;;;2082766;28;20199;-57
2022/04/04 00:42:20;;;;;;;6.93;6.17;;;;;;;;;;2085490;28;20179;-54
2022/04/04 00:43:20;;;;;;;6.27;5.63;;;;;;;;;;2082534;28;20179;-55
2022/04/04 00:44:21;;;;;;;6.97;5.30;;;;;;;;;;2080502;28;20180;-53
2022/04/04 00:45:21;;;;;;;6.30;5.70;;;;;;;;;;2096004;28;20167;-56
2022/04/04 00:46:21;;;;;;;6.40;5.83;;;;;;;;;;2082249;28;22150;-55
2022/04/04 00:47:21;;;;;;;6.50;5.87;;;;;;;;;;2085127;28;20215;-54
2022/04/04 00:48:22;;;;;;;7.53;5.73;;;;;;;;;;2087735;28;20171;-58
2022/04/04 00:49:22;;;;;;;6.80;6.20;;;;;;;;;;2095131;28;20186;-52
2022/04/04 00:50:22;;;;;;;7.33;6.63;;;;;;;;;;2089106;28;20255;-56
2022/04/04 00:51:23;;;;;;;6.73;5.97;;;;;;;;;;2096635;28;20237;-56
2022/04/04 00:52:24;;;;;;;8.10;6.73;;;;;;;;;;2092982;28;20167;-54
2022/04/04 00:53:25;;;;;;;7.30;6.43;;;;;;;;;;2089854;28;20175;-58
2022/04/04 00:54:26;;;;;;;6.70;6.17;;;;;;;;;;2095940;28;20685;-58
2022/04/04 00:55:26;;;;;;;6.77;6.17;;;;;;;;;;2091706;28;20231;-53
2022/04/04 00:56:27;;;;;;;6.20;5.70;;;;;;;;;;2094394;28;20206;-58
2022/04/04 00:57:28;;;;;;;6.50;6.00;;;;;;;;;;2097401;28;20682;-60
2022/04/04 00:58:32;;;;;;;6.97;5.47;;;;;;;;;;2091057;28;20207;-56
2022/04/04 00:59:33;;;;;;;6.67;6.07;;;;;;;;;;2091064;28;20182;-54
2022/04/04 01:00:34;;;;;;;7.03;6.33;;;;;;;;;;2094397;28;20225;-59
2022/04/04 01:01:34;;;;;;;6.17;5.63;;;;;;;;;;2094929;28;20236;-56
2022/04/04 01:02:35;;;;;;;7.07;6.57;;;;;;;;;;2093787;28;20180;-53
2022/04/04 01:03:35;;;;;;;6.83;5.90;;;;;;;;;;2089354;28;20235;-57
2022/04/04 01:04:35;;;;;;;6.53;6.03;;;;;;;;;;2086023;28;20267;-59
2022/04/04 01:05:36;;;;;;;6.90;6.30;;;;;;;;;;2083378;28;20172;-55
2022/04/04 01:06:36;;;;;;;6.00;5.50;;;;;;;;;;2095572;28;20214;-54
2022/04/04 01:07:37;;;;;;;6.83;6.33;;;;;;;;;;2083303;28;20172;-57
2022/04/04 01:08:37;;;;;;;7.50;6.90;;;;;;;;;;2081916;28;20200;-58
2022/04/04 01:09:37;;;;;;;7.03;6.47;;;;;;;;;;2082986;28;20184;-57
2022/04/04 01:10:38;;;;;;;7.53;6.83;;;;;;;;;;2090534;28;20231;-57
2022/04/04 01:11:38;;;;;;;6.90;6.30;;;;;;;;;;2082650;28;20207;-59
2022/04/04 01:12:50;;;;;;;7.30;6.70;;;;;;;;;;2098360;28;20165;-56
2022/04/04 01:13:50;;;;;;;7.83;7.13;;;;;;;;;;2095776;28;20172;-57
2022/04/04 01:14:51;;;;;;;7.33;6.73;;;;;;;;;;2096509;28;20441;-58
2022/04/04 01:15:51;;;;;;;7.47;6.83;;;;;;;;;;2091376;28;20239;-55
2022/04/04 01:16:51;;;;;;;7.80;6.93;;;;;;;;;;2089199;28;20183;-55
2022/04/04 01:17:52;;;;;;;9.23;7.70;;;;;;;;;;2093688;28;20179;-56
2022/04/04 01:18:52;;;;;;;7.53;6.93;;;;;;;;;;2097026;28;20209;-60
2022/04/04 01:19:53;;;;;;;10.50;7.23;;;;;;;;;;2088467;28;20192;-56
2022/04/04 01:20:53;;;;;;;8.07;7.27;;;;;;;;;;2087870;28;20225;-54
2022/04/04 01:21:53;;;;;;;7.60;6.90;;;;;;;;;;2085848;28;20169;-58
2022/04/04 01:22:54;;;;;;;6.80;6.30;;;;;;;;;;2096022;28;20682;-55
2022/04/04 01:23:55;;;;;;;7.97;6.87;;;;;;;;;;2084896;28;20192;-55
2022/04/04 01:25:01;;;;;;;7.23;6.60;;;;;;;;;;2092808;28;20235;-57
2022/04/04 01:26:02;;;;;;;7.47;6.77;;;;;;;;;;2086677;28;20442;-57
2022/04/04 01:27:03;;;;;;;8.00;7.07;;;;;;;;;;2078502;28;20455;-56
2022/04/04 01:28:04;;;;;;;7.67;6.93;;;;;;;;;;2087351;28;20668;-55
2022/04/04 01:29:04;;;;;;;9.03;7.90;;;;;;;;;;2092010;28;20175;-55
2022/04/04 01:30:05;;;;;;;8.97;7.63;;;;;;;;;;2086115;28;20731;-58
2022/04/04 01:31:05;;;;;;;8.47;7.67;;;;;;;;;;2076233;28;20200;-61
2022/04/04 01:32:06;;;;;;;8.53;7.73;;;;;;;;;;2086232;28;20160;-55
2022/04/04 01:33:07;;;;;;;8.87;7.40;;;;;;;;;;2097508;28;20186;-57
2022/04/04 01:34:07;;;;;;;8.60;7.83;;;;;;;;;;2094549;28;20203;-60
2022/04/04 01:35:09;;;;;;;9.20;8.33;;;;;;;;;;2095147;28;20178;-58
2022/04/04 01:36:10;;;;;;;10.37;7.60;;;;;;;;;;2097384;28;20201;-57
2022/04/04 01:37:10;;;;;;;8.83;8.00;;;;;;;;;;2094890;28;20251;-52
2022/04/04 01:38:10;;;;;;;8.23;7.43;;;;;;;;;;2095601;28;20201;-57
2022/04/04 01:39:11;;;;;;;8.37;7.37;;;;;;;;;;2093049;28;20534;-55
2022/04/04 01:40:11;;;;;;;9.80;7.63;;;;;;;;;;2093625;28;20182;-55
2022/04/04 01:41:12;;;;;;;9.57;8.73;;;;;;;;;;2093398;28;20188;-57
2022/04/04 01:42:12;;;;;;;9.07;8.27;;;;;;;;;;2096210;28;20535;-59
2022/04/04 01:43:12;;;;;;;8.70;7.87;;;;;;;;;;2094884;28;20183;-55
2022/04/04 01:44:13;;;;;;;9.03;8.13;;;;;;;;;;2089993;28;20167;-62
2022/04/04 01:45:14;;;;;;;8.53;7.73;;;;;;;;;;2088073;28;20175;-56
2022/04/04 01:46:29;;;;;;;9.43;8.30;;;;;;;;;;2093566;28;20175;-57
2022/04/04 01:47:30;;;;;;;8.30;7.43;;;;;;;;;;2099305;28;20158;-59
2022/04/04 01:48:34;;;;;;;9.27;8.47;;;;;;;;;;2083849;28;20185;-60
2022/04/04 01:49:34;;;;;;;9.37;8.43;;;;;;;;;;2079053;28;20212;-62
2022/04/04 01:50:35;;;;;;;11.03;9.37;;;;;;;;;;2082938;28;20191;-60
2022/04/04 01:51:37;;;;;;;10.47;9.43;;;;;;;;;;2082657;28;20623;-59
2022/04/04 01:52:37;;;;;;;10.93;9.23;;;;;;;;;;2070745;28;20170;-56
2022/04/04 01:53:37;;;;;;;10.33;9.37;;;;;;;;;;2075607;28;20180;-56
2022/04/04 01:54:38;;;;;;;10.00;9.07;;;;;;;;;;2091271;28;20263;-57
2022/04/04 01:55:41;;;;;;;10.93;9.83;;;;;;;;;;2092162;28;20203;-57
2022/04/04 01:56:41;;;;;;;9.97;8.97;;;;;;;;;;2090984;28;20172;-59
2022/04/04 01:57:42;;;;;;;11.33;9.30;;;;;;;;;;2085130;28;20176;-59
2022/04/04 01:58:42;;;;;;;9.90;8.90;;;;;;;;;;2100220;28;20174;-58
2022/04/04 01:59:43;;;;;;;9.23;8.33;;;;;;;;;;2090816;28;20204;-55
2022/04/04 02:00:43;;;;;;;9.70;8.70;;;;;;;;;;2088265;28;20191;-58
2022/04/04 02:01:44;;;;;;;10.57;9.67;;;;;;;;;;2089164;28;20176;-59
2022/04/04 02:02:44;;;;;;;11.93;9.47;;;;;;;;;;2090365;28;20211;-56
2022/04/04 02:03:46;;;;;;;11.30;10.20;;;;;;;;;;2076221;28;20173;-58
2022/04/04 02:04:46;;;;;;;10.40;9.30;;;;;;;;;;2090548;28;20180;-54
2022/04/04 02:05:47;;;;;;;10.97;9.83;;;;;;;;;;2089620;28;20206;-54
2022/04/04 02:06:47;;;;;;;10.70;9.60;;;;;;;;;;2086117;28;20680;-58
2022/04/04 02:07:48;;;;;;;11.00;9.83;;;;;;;;;;2087428;28;20180;-57
2022/04/04 02:08:48;;;;;;;12.37;10.40;;;;;;;;;;2099118;28;20284;-57
2022/04/04 02:09:48;;;;;;;11.77;10.57;;;;;;;;;;2089438;28;20183;-55
2022/04/04 02:10:48;;;;;;;10.77;9.77;;;;;;;;;;2090809;28;20180;-58
2022/04/04 02:11:49;;;;;;;11.77;9.43;;;;;;;;;;2086491;28;20165;-55
2022/04/04 02:12:50;;;;;;;11.67;9.90;;;;;;;;;;2091011;28;20184;-60
2022/04/04 02:13:50;;;;;;;10.50;9.50;;;;;;;;;;2086050;28;20168;-53
2022/04/04 02:14:50;;;;;;;10.87;9.60;;;;;;;;;;2098895;28;20228;-57
2022/04/04 02:15:52;;;;;;;12.50;10.60;;;;;;;;;;2089612;28;20262;-57
2022/04/04 02:16:52;;;;;;;11.70;10.60;;;;;;;;;;2097472;28;20602;-56
2022/04/04 02:17:52;;;;;;;12.10;10.80;;;;;;;;;;2089512;28;20172;-59
2022/04/04 02:18:53;;;;;;;12.00;10.90;;;;;;;;;;2095405;28;20195;-55
2022/04/04 02:19:54;;;;;;;11.83;9.93;;;;;;;;;;2092469;28;20180;-59
2022/04/04 02:20:54;;;;;;;10.53;9.03;;;;;;;;;;2090953;28;20191;-58
2022/04/04 02:21:54;;;;;;;10.67;9.57;;;;;;;;;;2084923;28;20172;-59
2022/04/04 02:22:55;;;;;;;11.43;10.40;;;;;;;;;;2090188;28;20175;-56
2022/04/04 02:23:55;;;;;;;10.97;9.87;;;;;;;;;;2095378;28;20238;-57
2022/04/04 02:24:55;;;;;;;11.77;10.57;;;;;;;;;;2097152;28;20221;-58
2022/04/04 02:25:57;;;;;;;12.67;10.67;;;;;;;;;;2089555;28;20187;-58
2022/04/04 02:26:58;;;;;;;10.73;9.67;;;;;;;;;;2087185;28;20357;-59
2022/04/04 02:27:58;;;;;;;11.27;10.10;;;;;;;;;;2098474;28;20183;-57
2022/04/04 02:28:58;;;;;;;11.10;10.00;;;;;;;;;;2092651;28;20280;-59
2022/04/04 02:29:58;;;;;;;13.57;10.03;;;;;;;;;;2096402;28;20203;-59
2022/04/04 02:30:59;;;;;;;10.73;9.73;;;;;;;;;;2090696;28;20212;-60
2022/04/04 02:31:59;;;;;;;10.87;9.63;;;;;;;;;;2113152;23;20242;-51
2022/04/04 02:33:00;;;;;;;10.60;9.60;;;;;;;;;;2090438;28;20168;-52
2022/04/04 02:34:00;;;;;;;10.23;9.17;;;;;;;;;;2094461;28;20246;-52
2022/04/04 02:35:01;;;;;;;12.53;10.00;;;;;;;;;;2094289;28;20199;-53
2022/04/04 02:36:02;;;;;;;14.47;10.93;;;;;;;;;;2083810;28;20171;-53
2022/04/04 02:37:02;;;;;;;12.23;9.87;;;;;;;;;;2086608;28;20184;-52
2022/04/04 02:38:03;;;;;;;11.30;9.40;;;;;;;;;;2094242;28;20216;-53
2022/04/04 02:39:04;;;;;;;10.47;9.43;;;;;;;;;;2097969;28;20186;-51
2022/04/04 02:40:05;;;;;;;11.57;8.90;;;;;;;;;;2095015;28;20771;-53
2022/04/04 02:41:06;;;;;;;11.13;9.90;;;;;;;;;;2099988;28;20182;-51
2022/04/04 02:42:06;;;;;;;11.07;9.97;;;;;;;;;;2093154;28;20762;-52
2022/04/04 02:43:07;;;;;;;11.33;10.23;;;;;;;;;;2094918;28;20179;-53
2022/04/04 02:44:07;;;;;;;11.03;9.93;;;;;;;;;;2092316;28;20301;-53
2022/04/04 02:45:07;;;;;;;10.43;9.53;;;;;;;;;;2089459;28;20171;-53
2022/04/04 02:46:11;;;;;;;11.87;9.67;;;;;;;;;;2094456;28;20264;-52
2022/04/04 02:47:11;;;;;;;13.47;9.73;;;;;;;;;;2091520;28;20652;-51
2022/04/04 02:48:11;;;;;;;11.60;10.40;;;;;;;;;;2091777;28;20214;-51
2022/04/04 02:49:11;;;;;;;10.30;9.23;;;;;;;;;;2092647;28;20195;-53
2022/04/04 02:50:12;;;;;;;10.17;9.17;;;;;;;;;;2094927;28;20198;-51
2022/04/04 02:51:14;;;;;;;13.80;10.33;;;;;;;;;;2092566;28;20288;-54
2022/04/04 02:52:14;;;;;;;11.53;10.33;;;;;;;;;;2095156;28;20742;-50
2022/04/04 02:53:14;;;;;;;12.83;10.40;;;;;;;;;;2091374;28;20191;-52
2022/04/04 02:54:14;;;;;;;11.67;10.47;;;;;;;;;;2095049;28;20179;-50
2022/04/04 02:56:36;;;;;;;14.67;10.53;;;;;;;;;;2087496;28;20244;-51
2022/04/04 02:57:36;;;;;;;12.93;10.43;;;;;;;;;;2087728;28;20182;-55
2022/04/04 02:58:37;;;;;;;14.57;9.83;;;;;;;;;;2090036;28;20183;-51
2022/04/04 02:59:38;;;;;;;11.90;9.33;;;;;;;;;;2083493;28;20180;-51
2022/04/04 03:00:38;;;;;;;10.13;8.93;;;;;;;;;;2089263;28;20175;-51
2022/04/04 03:01:38;;;;;;;11.03;9.67;;;;;;;;;;2089138;28;20172;-51
2022/04/04 03:02:38;;;;;;;11.10;10.03;;;;;;;;;;2089521;28;20201;-55
2022/04/04 03:03:40;;;;;;;14.37;9.67;;;;;;;;;;2081625;28;20188;-53
2022/04/04 03:04:42;;;;;;;10.73;9.63;;;;;;;;;;2088205;28;20168;-51
2022/04/04 03:05:42;;;;;;;12.57;9.70;;;;;;;;;;2080958;28;20916;-51
2022/04/04 03:06:43;;;;;;;11.20;9.80;;;;;;;;;;2073486;28;20208;-52
2022/04/04 03:07:44;;;;;;;10.07;9.07;;;;;;;;;;2085624;28;20204;-53
2022/04/04 03:08:44;;;;;;;10.23;9.23;;;;;;;;;;2093971;28;20199;-52
2022/04/04 03:09:45;;;;;;;11.83;9.10;;;;;;;;;;2088683;28;20172;-50
2022/04/04 03:10:46;;;;;;;10.57;9.47;;;;;;;;;;2088288;28;20207;-51
2022/04/04 03:11:46;;;;;;;10.37;9.20;;;;;;;;;;2083565;28;20196;-53
2022/04/04 03:12:47;;;;;;;10.63;9.53;;;;;;;;;;2082888;28;20176;-51
2022/04/04 03:13:48;;;;;;;11.37;9.43;;;;;;;;;;2083898;28;20180;-53
2022/04/04 03:14:48;;;;;;;9.50;8.60;;;;;;;;;;2085168;28;20660;-54
2022/04/04 03:15:48;;;;;;;9.47;8.47;;;;;;;;;;2097076;28;20175;-53
2022/04/04 03:16:49;;;;;;;10.23;9.20;;;;;;;;;;2093541;28;20199;-51
2022/04/04 03:17:51;;;;;;;9.73;8.73;;;;;;;;;;2096192;28;20549;-53
2022/04/04 03:18:54;;;;;;;10.13;9.10;;;;;;;;;;2089215;28;20159;-56
2022/04/04 03:19:54;;;;;;;9.83;8.83;;;;;;;;;;2093185;28;20229;-50
2022/04/04 03:20:55;;;;;;;9.80;8.67;;;;;;;;;;2086313;28;20188;-54
2022/04/04 03:21:56;;;;;;;9.73;8.60;;;;;;;;;;2072986;28;20300;-52
2022/04/04 03:22:56;;;;;;;11.03;8.47;;;;;;;;;;2084235;28;20199;-55
2022/04/04 03:23:57;;;;;;;9.40;8.60;;;;;;;;;;2077767;28;20189;-51
2022/04/04 03:24:58;;;;;;;10.30;8.47;;;;;;;;;;2082946;28;20242;-53
2022/04/04 03:25:58;;;;;;;10.23;8.17;;;;;;;;;;2094684;28;20200;-52
2022/04/04 03:26:58;;;;;;;10.83;7.43;;;;;;;;;;2088328;28;20274;-52
2022/04/04 03:27:58;;;;;;;10.23;8.70;;;;;;;;;;2092932;28;20703;-53
2022/04/04 03:28:59;;;;;;;9.00;8.13;;;;;;;;;;2094219;28;20201;-55
2022/04/04 03:29:59;;;;;;;9.40;8.37;;;;;;;;;;2092982;28;20179;-51
2022/04/04 03:31:00;;;;;;;10.47;8.73;;;;;;;;;;2092336;28;20179;-51
2022/04/04 03:32:00;;;;;;;11.03;8.50;;;;;;;;;;2093209;28;20307;-54
2022/04/04 03:33:01;;;;;;;9.33;8.43;;;;;;;;;;2095424;28;20170;-53
2022/04/04 03:34:01;;;;;;;11.27;8.97;;;;;;;;;;2093773;28;20190;-51
2022/04/04 03:35:02;;;;;;;9.60;8.73;;;;;;;;;;2090652;28;20182;-54
2022/04/04 03:36:02;;;;;;;9.60;8.77;;;;;;;;;;2094346;28;20167;-51
2022/04/04 03:37:03;;;;;;;10.13;8.43;;;;;;;;;;2090178;28;20542;-54
2022/04/04 03:38:04;;;;;;;10.50;8.80;;;;;;;;;;2094343;28;20198;-53
2022/04/04 03:39:04;;;;;;;9.10;8.40;;;;;;;;;;2091150;28;20167;-54
2022/04/04 03:40:06;;;;;;;10.97;8.40;;;;;;;;;;2090572;28;20439;-54
2022/04/04 03:41:07;;;;;;;8.43;7.67;;;;;;;;;;2089821;28;20239;-52
2022/04/04 03:42:07;;;;;;;9.57;8.57;;;;;;;;;;2092496;28;20190;-52
2022/04/04 03:43:08;;;;;;;11.27;8.77;;;;;;;;;;2086011;28;20620;-54
2022/04/04 03:44:08;;;;;;;8.97;8.07;;;;;;;;;;2089178;28;20175;-53
2022/04/04 03:45:11;;;;;;;9.33;8.43;;;;;;;;;;2094293;28;20194;-51
2022/04/04 03:46:11;;;;;;;9.20;8.23;;;;;;;;;;2092338;28;20183;-53
2022/04/04 03:47:12;;;;;;;8.93;8.13;;;;;;;;;;2094696;28;20175;-51
2022/04/04 03:48:12;;;;;;;9.43;8.53;;;;;;;;;;2092505;28;20179;-52
2022/04/04 03:49:13;;;;;;;9.90;8.90;;;;;;;;;;2091720;28;20172;-53
2022/04/04 03:50:14;;;;;;;10.40;8.53;;;;;;;;;;2090457;28;20992;-52
2022/04/04 03:51:14;;;;;;;9.87;8.97;;;;;;;;;;2089749;28;20187;-55
2022/04/04 03:52:14;;;;;;;10.53;9.50;;;;;;;;;;2091250;28;20199;-52
2022/04/04 03:53:14;;;;;;;9.83;8.83;;;;;;;;;;2095071;28;20181;-56
2022/04/04 03:54:15;;;;;;;10.33;9.17;;;;;;;;;;2088261;28;20199;-52
2022/04/04 03:55:16;;;;;;;9.97;8.97;;;;;;;;;;2092443;28;20167;-54
2022/04/04 03:56:16;;;;;;;10.50;9.50;;;;;;;;;;2087603;28;20640;-53
2022/04/04 03:57:17;;;;;;;10.10;9.10;;;;;;;;;;2087512;28;20214;-52
2022/04/04 03:58:18;;;;;;;9.87;9.00;;;;;;;;;;2084051;28;20183;-52
2022/04/04 03:59:18;;;;;;;9.47;8.57;;;;;;;;;;2089217;28;20854;-51
2022/04/04 04:00:19;;;;;;;11.37;9.47;;;;;;;;;;2086481;28;20218;-51
2022/04/04 04:01:20;;;;;;;10.07;9.17;;;;;;;;;;2093497;28;20198;-50
2022/04/04 04:02:20;;;;;;;9.73;8.83;;;;;;;;;;2096280;28;20230;-52
2022/04/04 04:03:20;;;;;;;9.90;8.93;;;;;;;;;;2092353;28;20171;-55
2022/04/04 04:04:20;;;;;;;11.60;9.77;;;;;;;;;;2089790;28;20183;-51
2022/04/04 04:05:21;;;;;;;11.13;10.00;;;;;;;;;;2095345;28;20177;-53
2022/04/04 04:06:21;;;;;;;10.20;9.17;;;;;;;;;;2088728;28;20258;-52
2022/04/04 04:07:24;;;;;;;12.07;9.23;;;;;;;;;;2088907;28;20179;-53
2022/04/04 04:08:24;;;;;;;10.47;9.37;;;;;;;;;;2095641;28;20167;-54
2022/04/04 04:09:25;;;;;;;11.23;10.03;;;;;;;;;;2090384;28;20186;-53
2022/04/04 04:10:25;;;;;;;10.83;9.63;;;;;;;;;;2075597;28;20173;-53
2022/04/04 04:11:25;;;;;;;10.13;9.10;;;;;;;;;;2079748;28;20649;-52
2022/04/04 04:12:26;;;;;;;9.23;8.30;;;;;;;;;;2089896;28;20197;-52
2022/04/04 04:13:26;;;;;;;11.23;10.03;;;;;;;;;;2089160;28;20171;-54
2022/04/04 04:14:26;;;;;;;11.37;9.93;;;;;;;;;;2080763;28;20612;-55
2022/04/04 04:15:27;;;;;;;13.43;10.50;;;;;;;;;;2081298;28;20570;-53
2022/04/04 04:16:27;;;;;;;12.30;10.10;;;;;;;;;;2086542;28;20651;-52
2022/04/04 04:17:27;;;;;;;12.07;10.17;;;;;;;;;;2088973;28;20176;-51
2022/04/04 04:18:28;;;;;;;12.63;10.03;;;;;;;;;;2080989;28;20178;-52
2022/04/04 04:20:48;;;;;;;11.07;9.97;;;;;;;;;;2087213;28;20172;-51
2022/04/04 04:21:49;;;;;;;11.73;10.40;;;;;;;;;;2092703;28;20278;-53
2022/04/04 04:22:56;;;;;;;10.87;9.90;;;;;;;;;;2092873;28;20648;-53
2022/04/04 04:23:57;;;;;;;13.10;10.30;;;;;;;;;;2096183;28;20174;-51
2022/04/04 04:24:58;;;;;;;11.63;10.47;;;;;;;;;;2087622;28;20265;-51
2022/04/04 04:25:58;;;;;;;13.07;10.87;;;;;;;;;;2094989;28;20670;-53
2022/04/04 04:26:58;;;;;;;12.13;11.00;;;;;;;;;;2093219;28;20203;-52
2022/04/04 04:28:01;;;;;;;11.20;9.87;;;;;;;;;;2097362;28;20157;-51
2022/04/04 04:29:02;;;;;;;11.80;10.60;;;;;;;;;;2086444;28;20167;-51
2022/04/04 04:30:03;;;;;;;12.33;11.03;;;;;;;;;;2092860;28;20594;-53
2022/04/04 04:31:04;;;;;;;11.13;10.00;;;;;;;;;;2093700;28;20462;-54
2022/04/04 04:32:05;;;;;;;11.77;10.57;;;;;;;;;;2089972;28;20746;-52
2022/04/04 04:33:05;;;;;;;12.40;11.23;;;;;;;;;;2080541;28;20203;-53
2022/04/04 04:34:05;;;;;;;12.57;11.27;;;;;;;;;;2080438;28;20204;-51
2022/04/04 04:35:06;;;;;;;11.57;10.47;;;;;;;;;;2085248;28;20172;-50
2022/04/04 04:36:07;;;;;;;12.40;11.17;;;;;;;;;;2085069;28;20259;-54
2022/04/04 04:37:07;;;;;;;13.17;11.80;;;;;;;;;;2089971;28;20609;-51
2022/04/04 04:38:08;;;;;;;12.60;11.40;;;;;;;;;;2081093;28;20248;-53
2022/04/04 04:39:08;;;;;;;12.77;11.53;;;;;;;;;;2076078;28;21903;-52
2022/04/04 04:40:09;;;;;;;13.23;11.33;;;;;;;;;;2078876;28;20175;-54
2022/04/04 04:41:10;;;;;;;12.17;10.97;;;;;;;;;;2094591;28;20181;-50
2022/04/04 04:42:10;;;;;;;12.77;11.50;;;;;;;;;;2098260;28;20201;-51
2022/04/04 04:43:11;;;;;;;13.13;11.53;;;;;;;;;;2090376;28;20188;-51
2022/04/04 04:44:11;;;;;;;12.47;11.27;;;;;;;;;;2087731;28;20171;-52
2022/04/04 04:45:12;;;;;;;13.40;12.00;;;;;;;;;;2088578;28;20187;-55
2022/04/04 04:46:12;;;;;;;11.73;10.63;;;;;;;;;;2090776;28;20187;-50
2022/04/04 04:47:15;;;;;;;13.27;11.87;;;;;;;;;;2088445;28;20264;-52
2022/04/04 04:48:15;;;;;;;12.23;10.93;;;;;;;;;;2086835;28;20188;-52
2022/04/04 04:49:16;;;;;;;13.23;11.93;;;;;;;;;;2089048;28;20648;-56
2022/04/04 04:50:17;;;;;;;12.50;11.30;;;;;;;;;;2091342;28;20233;-52
2022/04/04 04:51:17;;;;;;;13.43;12.23;;;;;;;;;;2081082;28;20263;-51
2022/04/04 04:52:17;;;;;;;13.17;11.73;;;;;;;;;;2086994;28;20790;-51
2022/04/04 04:53:18;;;;;;;13.63;12.30;;;;;;;;;;2096567;28;20186;-51
2022/04/04 04:54:18;;;;;;;12.83;11.53;;;;;;;;;;2091482;28;20167;-50
2022/04/04 04:55:18;;;;;;;12.67;11.40;;;;;;;;;;2087788;28;20797;-50
2022/04/04 04:56:19;;;;;;;13.43;11.63;;;;;;;;;;2093760;28;20167;-54
2022/04/04 04:57:19;;;;;;;13.77;11.13;;;;;;;;;;2091004;28;20179;-52
2022/04/04 04:58:20;;;;;;;14.73;12.43;;;;;;;;;;2092316;28;20191;-53
2022/04/04 04:59:20;;;;;;;11.63;10.50;;;;;;;;;;2088701;28;20178;-53
2022/04/04 05:00:22;;;;;;;13.10;10.73;;;;;;;;;;2085539;28;20239;-54
2022/04/04 05:01:23;;;;;;;12.77;11.47;;;;;;;;;;2094018;28;20181;-53
2022/04/04 05:02:23;;;;;;;14.50;11.30;;;;;;;;;;2090855;28;20207;-50
2022/04/04 05:03:26;;;;;;;12.40;11.10;;;;;;;;;;2096584;28;20214;-52
2022/04/04 05:04:26;;;;;;;13.83;11.63;;;;;;;;;;2097987;28;20171;-50
2022/04/04 05:05:27;;;;;;;13.53;12.13;;;;;;;;;;2099072;28;20210;-54
2022/04/04 05:06:27;;;;;;;12.90;11.47;;;;;;;;;;2085904;28;20263;-54
2022/04/04 05:07:28;;;;;;;13.47;11.23;;;;;;;;;;2082951;28;20176;-51
2022/04/04 05:08:30;;;;;;;11.33;10.13;;;;;;;;;;2081397;28;20168;-53
2022/04/04 05:09:31;;;;;;;12.63;11.33;;;;;;;;;;2081722;28;20168;-53
2022/04/04 05:10:31;;;;;;;12.13;10.93;;;;;;;;;;2081637;28;20180;-51
2022/04/04 05:11:31;;;;;;;11.63;10.63;;;;;;;;;;2083787;28;20168;-50
2022/04/04 05:12:32;;;;;;;15.07;10.97;;;;;;;;;;2092872;28;20207;-51
2022/04/04 05:13:32;;;;;;;11.73;10.63;;;;;;;;;;2091832;28;20210;-52
2022/04/04 05:14:32;;;;;;;11.63;10.53;;;;;;;;;;2091529;28;20164;-51
2022/04/04 05:15:33;;;;;;;11.50;10.40;;;;;;;;;;2090080;28;20233;-52
2022/04/04 05:16:33;;;;;;;13.63;10.20;;;;;;;;;;2090414;28;20655;-52
2022/04/04 05:17:34;;;;;;;12.43;11.23;;;;;;;;;;2090310;28;20429;-52
2022/04/04 05:18:34;;;;;;;12.03;10.77;;;;;;;;;;2090975;28;20187;-51
2022/04/04 05:19:34;;;;;;;11.47;10.40;;;;;;;;;;2091380;28;20194;-52
2022/04/04 05:20:35;;;;;;;11.77;10.57;;;;;;;;;;2089801;28;20215;-52
2022/04/04 05:21:35;;;;;;;14.37;12.03;;;;;;;;;;2085566;28;20180;-52
2022/04/04 05:22:35;;;;;;;11.80;10.60;;;;;;;;;;2083238;28;20183;-54
2022/04/04 05:23:36;;;;;;;11.77;10.60;;;;;;;;;;2099738;28;20178;-52
2022/04/04 05:24:36;;;;;;;10.93;9.93;;;;;;;;;;2082198;28;20295;-54
2022/04/04 05:25:37;;;;;;;10.40;9.50;;;;;;;;;;2081535;28;20223;-51
2022/04/04 05:26:37;;;;;;;10.67;9.67;;;;;;;;;;2095907;28;20191;-52
2022/04/04 05:27:38;;;;;;;11.37;10.33;;;;;;;;;;2091238;28;20538;-54
2022/04/04 05:28:38;;;;;;;10.80;9.60;;;;;;;;;;2099788;28;20196;-52
2022/04/04 05:29:39;;;;;;;12.27;11.10;;;;;;;;;;2099401;28;20800;-52
2022/04/04 05:30:39;;;;;;;11.50;10.47;;;;;;;;;;2087683;28;20168;-55
2022/04/04 05:31:39;;;;;;;10.70;9.60;;;;;;;;;;2095824;28;20630;-53
2022/04/04 05:32:39;;;;;;;10.87;9.77;;;;;;;;;;2091196;28;20588;-54
2022/04/04 05:33:40;;;;;;;11.17;9.73;;;;;;;;;;2090922;28;20164;-50
2022/04/04 05:34:40;;;;;;;11.40;10.30;;;;;;;;;;2098517;28;20182;-51
2022/04/04 05:35:40;;;;;;;11.93;10.73;;;;;;;;;;2099801;28;20169;-53
2022/04/04 05:36:41;;;;;;;13.27;9.93;;;;;;;;;;2091681;28;20250;-51
2022/04/04 05:37:41;;;;;;;11.20;9.60;;;;;;;;;;2091373;28;20184;-52
2022/04/04 05:38:42;;;;;;;10.27;9.30;;;;;;;;;;2093465;28;20191;-51
2022/04/04 05:39:42;;;;;;;11.13;9.00;;;;;;;;;;2100534;28;20188;-50
2022/04/04 05:40:42;;;;;;;11.53;10.40;;;;;;;;;;2098058;28;20201;-51
2022/04/04 05:41:42;;;;;;;11.80;10.13;;;;;;;;;;2105570;28;20214;-51
2022/04/04 05:42:43;;;;;;;10.10;9.10;;;;;;;;;;2097509;28;20179;-52
2022/04/04 05:43:44;;;;;;;10.10;9.17;;;;;;;;;;2089822;28;20192;-52
2022/04/04 05:44:44;;;;;;;10.10;9.20;;;;;;;;;;2096929;28;20198;-55
2022/04/04 05:45:47;;;;;;;10.97;9.30;;;;;;;;;;2087467;28;20172;-52
2022/04/04 05:46:48;;;;;;;10.33;9.33;;;;;;;;;;2079774;28;20208;-51
2022/04/04 05:47:48;;;;;;;11.03;9.80;;;;;;;;;;2079255;28;20941;-54
2022/04/04 05:48:48;;;;;;;10.17;9.17;;;;;;;;;;2082214;28;20180;-55
2022/04/04 05:49:49;;;;;;;11.30;9.77;;;;;;;;;;2093247;28;20258;-53
2022/04/04 05:50:49;;;;;;;10.20;9.20;;;;;;;;;;2088615;28;20644;-53
2022/04/04 05:51:49;;;;;;;11.57;10.00;;;;;;;;;;2088481;28;20227;-53
2022/04/04 05:52:50;;;;;;;9.30;8.50;;;;;;;;;;2074773;28;20169;-54
2022/04/04 05:53:50;;;;;;;10.37;9.33;;;;;;;;;;2076574;28;20727;-57
2022/04/04 05:55:01;;;;;;;10.87;9.77;;;;;;;;;;2095834;28;20685;-56
2022/04/04 05:56:02;;;;;;;9.53;8.50;;;;;;;;;;2089419;28;20228;-56
2022/04/04 05:57:02;;;;;;;9.03;8.23;;;;;;;;;;2094597;28;20179;-55
2022/04/04 05:58:03;;;;;;;9.93;8.87;;;;;;;;;;2092814;28;20187;-53
2022/04/04 05:59:03;;;;;;;11.70;9.20;;;;;;;;;;2095213;28;20613;-55
2022/04/04 06:00:08;;;;;;;10.30;8.70;;;;;;;;;;2090448;28;20199;-51
2022/04/04 06:01:10;;;;;;;9.30;8.30;;;;;;;;;;2083111;28;20184;-51
2022/04/04 06:02:12;;;;;;;9.40;8.60;;;;;;;;;;2087254;28;20714;-55